Time;durP1;ratioP1;P1;durP2;ratioP2;P2;SDS_P1;SDS_P2;PMS_P1;PMS_P2;Temp;Humidity;BMP_temperature;BMP_pressure;BME280_temperature;BME280_humidity;BME280_pressure;Samples;Min_cycle;Max_cycle;Signal;HPM_P1;HPM_P2
2023/02/14 00:00:50;;;;;;;160.83;33.07;;;;;;;-145.18;100.00;60484.78;5073192;28;20032;-89
2023/02/14 00:03:16;;;;;;;154.27;33.57;;;;;;;-145.18;100.00;60484.78;5071853;28;20032;-90
2023/02/14 00:05:41;;;;;;;152.67;31.97;;;;;;;-145.18;100.00;60484.78;5070119;28;20389;-90
2023/02/14 00:08:07;;;;;;;169.67;32.60;;;;;;;-145.18;100.00;60484.78;5076704;28;20040;-90
2023/02/14 00:10:32;;;;;;;161.27;33.70;;;;;;;-145.18;100.00;60484.78;5075063;28;20024;-90
2023/02/14 00:12:58;;;;;;;177.97;33.73;;;;;;;-145.18;100.00;60484.78;5070604;28;20028;-90
2023/02/14 00:15:23;;;;;;;167.37;35.00;;;;;;;-145.18;100.00;60484.78;5055725;28;20056;-90
2023/02/14 00:17:54;;;;;;;167.13;33.93;;;;;;;-145.18;100.00;60484.78;5077561;28;20052;-90
2023/02/14 00:20:21;;;;;;;181.15;35.97;;;;;;;-145.18;100.00;60484.78;5074520;28;20036;-90
2023/02/14 00:22:46;;;;;;;179.87;34.37;;;;;;;-145.18;100.00;60484.78;5076578;28;20119;-90
2023/02/14 00:25:12;;;;;;;186.33;35.20;;;;;;;-145.18;100.00;60484.78;5076252;28;20504;-90
2023/02/14 00:27:38;;;;;;;190.27;36.70;;;;;;;-145.18;100.00;60484.78;5075211;28;20028;-90
2023/02/14 00:30:05;;;;;;;181.27;35.83;;;;;;;-145.18;100.00;60484.78;5073379;28;20074;-90
2023/02/14 00:32:31;;;;;;;183.10;36.23;;;;;;;-145.18;100.00;60484.78;5053965;28;20032;-91
2023/02/14 00:34:56;;;;;;;177.73;36.20;;;;;;;-145.18;100.00;60484.78;5070160;28;20024;-90
2023/02/14 00:37:22;;;;;;;186.80;36.87;;;;;;;-145.18;100.00;60484.78;5072717;28;20032;-91
2023/02/14 00:39:48;;;;;;;193.77;39.30;;;;;;;-145.18;100.00;60484.78;5058136;28;20050;-90
2023/02/14 00:42:13;;;;;;;196.50;38.33;;;;;;;-145.18;100.00;60484.78;5075784;28;20020;-91
2023/02/14 00:44:39;;;;;;;177.53;36.63;;;;;;;-145.18;100.00;60484.78;5073900;28;20587;-90
2023/02/14 00:47:05;;;;;;;178.97;35.90;;;;;;;-145.18;100.00;60484.78;5074620;28;20024;-91
2023/02/14 00:49:30;;;;;;;161.83;36.30;;;;;;;-145.18;100.00;60484.78;5069405;28;20031;-91
2023/02/14 00:51:56;;;;;;;178.83;37.07;;;;;;;-145.18;100.00;60484.78;5072924;28;20032;-91
2023/02/14 00:54:21;;;;;;;178.30;37.13;;;;;;;-145.18;100.00;60484.78;5071301;28;20021;-91
2023/02/14 00:56:46;;;;;;;186.80;37.90;;;;;;;-145.18;100.00;60484.78;5071262;28;20059;-91
2023/02/14 00:59:12;;;;;;;176.00;36.43;;;;;;;-145.18;100.00;60484.78;5074136;28;20025;-89
2023/02/14 01:01:38;;;;;;;169.80;36.20;;;;;;;-145.18;100.00;60484.78;5069345;28;20072;-90
2023/02/14 01:04:04;;;;;;;169.37;35.40;;;;;;;-145.18;100.00;60484.78;5067412;28;20452;-90
2023/02/14 01:06:29;;;;;;;168.40;38.97;;;;;;;-145.18;100.00;60484.78;5068394;28;20107;-90
2023/02/14 01:08:55;;;;;;;171.90;37.30;;;;;;;-145.18;100.00;60484.78;5071028;28;20032;-90
2023/02/14 01:11:23;;;;;;;172.60;35.17;;;;;;;-145.18;100.00;60484.78;5072636;28;20024;-91
2023/02/14 01:13:50;;;;;;;174.03;37.30;;;;;;;-145.18;100.00;60484.78;5065811;28;20032;-90
2023/02/14 01:16:20;;;;;;;156.60;37.03;;;;;;;-145.18;100.00;60484.78;5067448;28;20541;-91
2023/02/14 01:18:46;;;;;;;165.03;36.93;;;;;;;-145.18;100.00;60484.78;5069280;28;20032;-90
2023/02/14 01:21:21;;;;;;;155.27;34.10;;;;;;;-145.18;100.00;60484.78;5068875;28;20008;-90
2023/02/14 01:23:49;;;;;;;154.23;33.97;;;;;;;-145.18;100.00;60484.78;5071492;28;20028;-90
2023/02/14 01:26:15;;;;;;;163.33;34.83;;;;;;;-145.18;100.00;60484.78;5069337;28;20024;-91
2023/02/14 01:28:41;;;;;;;159.03;35.93;;;;;;;-145.18;100.00;60484.78;5072058;28;20052;-90
2023/02/14 01:31:12;;;;;;;174.47;37.53;;;;;;;-145.18;100.00;60484.78;5066895;28;20063;-90
2023/02/14 01:33:39;;;;;;;164.88;36.53;;;;;;;-145.18;100.00;60484.78;5059592;28;20036;-91
2023/02/14 01:36:06;;;;;;;183.53;38.53;;;;;;;-145.18;100.00;60484.78;5052419;28;20020;-90
2023/02/14 01:38:31;;;;;;;181.17;38.83;;;;;;;-145.18;100.00;60484.78;5070616;28;20099;-90
2023/02/14 01:40:57;;;;;;;192.37;40.97;;;;;;;-145.18;100.00;60484.78;5069622;28;20223;-90
2023/02/14 01:43:23;;;;;;;180.97;38.70;;;;;;;-145.18;100.00;60484.78;5070992;28;20414;-90
2023/02/14 01:45:48;;;;;;;187.33;39.60;;;;;;;-145.18;100.00;60484.78;5069725;28;20027;-90
2023/02/14 01:48:16;;;;;;;195.30;39.13;;;;;;;-145.18;100.00;60484.78;5070457;28;20464;-90
2023/02/14 01:50:44;;;;;;;180.33;38.53;;;;;;;-145.18;100.00;60484.78;5069325;28;20635;-90
2023/02/14 01:53:25;;;;;;;196.87;40.13;;;;;;;-145.18;100.00;60484.78;5069811;28;20066;-90
2023/02/14 01:55:59;;;;;;;174.07;38.00;;;;;;;-145.18;100.00;60484.78;5053601;28;20025;-90
2023/02/14 01:58:28;;;;;;;181.43;38.87;;;;;;;-145.18;100.00;60484.78;5068814;28;20032;-91
2023/02/14 02:00:57;;;;;;;180.53;37.37;;;;;;;-145.18;100.00;60484.78;5066647;28;20074;-90
2023/02/14 02:03:31;;;;;;;160.03;36.03;;;;;;;-145.18;100.00;60484.78;5065012;22;20028;-65
2023/02/14 02:06:08;;;;;;;152.60;32.73;;;;;;;-145.18;100.00;60484.78;5062569;28;20052;-65
2023/02/14 02:08:39;;;;;;;157.23;33.97;;;;;;;-145.18;100.00;60484.78;5063470;28;20040;-65
2023/02/14 02:11:04;;;;;;;163.53;34.30;;;;;;;-145.18;100.00;60484.78;5061531;28;20025;-64
2023/02/14 02:13:30;;;;;;;163.07;34.43;;;;;;;-145.18;100.00;60484.78;5061229;28;20025;-65
2023/02/14 02:16:10;;;;;;;155.23;33.77;;;;;;;-145.18;100.00;60484.78;5056752;28;20047;-65
2023/02/14 02:19:04;;;;;;;163.33;35.03;;;;;;;-145.18;100.00;60484.78;5051792;28;20059;-65
2023/02/14 02:21:50;;;;;;;164.87;34.57;;;;;;;-145.18;100.00;60484.78;5009365;28;20055;-65
2023/02/14 02:24:18;;;;;;;156.73;31.90;;;;;;;-145.18;100.00;60484.78;5060552;28;20033;-65
2023/02/14 02:27:28;;;;;;;133.00;29.47;;;;;;;-145.18;100.00;60484.78;5054906;28;20032;-65
2023/02/14 02:30:12;;;;;;;152.43;32.30;;;;;;;-145.18;100.00;60484.78;5048606;28;20036;-65
2023/02/14 02:33:08;;;;;;;158.13;33.20;;;;;;;-145.18;100.00;60484.78;5057984;28;20033;-65
2023/02/14 02:35:39;;;;;;;150.83;34.07;;;;;;;-145.18;100.00;60484.78;5058367;28;20028;-64
2023/02/14 02:38:26;;;;;;;152.63;32.03;;;;;;;-145.18;100.00;60484.78;5052842;28;20528;-64
2023/02/14 02:41:28;;;;;;;144.97;32.87;;;;;;;-145.18;100.00;60484.78;5065066;28;20024;-65
2023/02/14 02:44:02;;;;;;;150.10;32.43;;;;;;;-145.18;100.00;60484.78;5053593;28;20033;-64
2023/02/14 02:46:47;;;;;;;141.17;29.40;;;;;;;-145.18;100.00;60484.78;5057648;28;20139;-65
2023/02/14 02:53:02;;;;;;;143.63;33.13;;;;;;;-145.18;100.00;60484.78;4995562;28;20061;-66
2023/02/14 02:58:41;;;;;;;146.17;32.10;;;;;;;-145.18;100.00;60484.78;5058698;28;20051;-66
2023/02/14 03:01:15;;;;;;;144.90;34.40;;;;;;;-145.18;100.00;60484.78;5059908;28;20649;-65
2023/02/14 03:06:31;;;;;;;153.97;34.53;;;;;;;-145.18;100.00;60484.78;5052102;28;20050;-66
2023/02/14 03:08:56;;;;;;;154.77;35.50;;;;;;;-145.18;100.00;60484.78;5053830;28;20029;-66
2023/02/14 03:11:24;;;;;;;149.07;33.97;;;;;;;-145.18;100.00;60484.78;5034148;28;20055;-66
2023/02/14 03:14:14;;;;;;;155.57;32.87;;;;;;;-145.18;100.00;60484.78;5050898;28;20029;-66
2023/02/14 03:17:16;;;;;;;164.47;36.57;;;;;;;-145.18;100.00;60484.78;5052309;28;20028;-66
2023/02/14 03:20:14;;;;;;;163.40;35.90;;;;;;;-145.18;100.00;60484.78;5056622;28;20037;-67
2023/02/14 03:22:42;;;;;;;174.07;36.97;;;;;;;-145.18;100.00;60484.78;5017694;28;20052;-67
2023/02/14 03:25:25;;;;;;;188.73;38.63;;;;;;;-145.18;100.00;60484.78;5056112;28;20036;-66
2023/02/14 03:28:21;;;;;;;200.63;41.00;;;;;;;-145.18;100.00;60484.78;5034793;28;20499;-66
2023/02/14 03:31:16;;;;;;;198.87;39.27;;;;;;;-145.18;100.00;60484.78;5046766;28;20025;-66
2023/02/14 03:33:59;;;;;;;213.57;39.80;;;;;;;-145.18;100.00;60484.78;5016469;28;20040;-66
2023/02/14 03:36:28;;;;;;;196.23;38.07;;;;;;;-145.18;100.00;60484.78;5052052;28;20119;-66
2023/02/14 03:39:12;;;;;;;180.70;36.43;;;;;;;-145.18;100.00;60484.78;5054282;28;20057;-66
2023/02/14 03:41:55;;;;;;;207.47;38.73;;;;;;;-145.18;100.00;60484.78;5051728;28;20578;-66
2023/02/14 03:44:27;;;;;;;195.83;39.30;;;;;;;-145.18;100.00;60484.78;5056215;28;20032;-66
2023/02/14 03:46:56;;;;;;;;;;;;;;;-145.18;100.00;60484.78;5057207;28;20020;-66
2023/02/14 03:49:26;;;;;;;189.60;35.27;;;;;;;-145.18;100.00;60484.78;5054117;28;19967;-65
2023/02/14 03:51:54;;;;;;;201.33;36.87;;;;;;;-145.18;100.00;60484.78;5051708;28;20358;-65
2023/02/14 03:54:21;;;;;;;157.70;32.10;;;;;;;-145.18;100.00;60484.78;5051579;28;20017;-65
2023/02/14 03:57:12;;;;;;;198.60;37.30;;;;;;;-145.18;100.00;60484.78;5048751;28;20104;-64
2023/02/14 03:59:39;;;;;;;199.45;37.03;;;;;;;-145.18;100.00;60484.78;5049800;28;20806;-65
2023/02/14 04:02:33;;;;;;;203.37;37.33;;;;;;;-145.18;100.00;60484.78;5054852;28;20380;-65
2023/02/14 04:05:01;;;;;;;225.90;38.47;;;;;;;-145.18;100.00;60484.78;5051889;28;20036;-65
2023/02/14 04:07:27;;;;;;;207.13;38.17;;;;;;;-145.18;100.00;60484.78;5056004;28;20028;-65
2023/02/14 04:09:52;;;;;;;224.57;38.33;;;;;;;-145.18;100.00;60484.78;5051784;28;20082;-65
2023/02/14 04:12:19;;;;;;;209.30;39.07;;;;;;;-145.18;100.00;60484.78;5051561;28;20417;-65
2023/02/14 04:14:44;;;;;;;194.50;36.63;;;;;;;-145.18;100.00;60484.78;5061263;28;20487;-65
2023/02/14 04:19:54;;;;;;;218.83;38.53;;;;;;;-145.18;100.00;60484.78;5055026;28;20040;-64
2023/02/14 04:22:20;;;;;;;193.70;37.30;;;;;;;-145.18;100.00;60484.78;5054670;28;20024;-65
2023/02/14 04:24:45;;;;;;;214.53;38.63;;;;;;;-145.18;100.00;60484.78;5050482;28;20032;-64
2023/02/14 04:27:11;;;;;;;211.37;37.47;;;;;;;-145.18;100.00;60484.78;5053266;28;20092;-65
2023/02/14 04:29:46;;;;;;;220.97;37.17;;;;;;;-145.18;100.00;60484.78;5050643;28;20024;-64
2023/02/14 04:32:14;;;;;;;209.90;37.13;;;;;;;-145.18;100.00;60484.78;5057178;28;20024;-64
2023/02/14 04:34:39;;;;;;;197.33;37.33;;;;;;;-145.18;100.00;60484.78;5051535;28;20059;-65
2023/02/14 04:37:06;;;;;;;219.50;38.43;;;;;;;-145.18;100.00;60484.78;5047173;28;20025;-64
2023/02/14 04:39:31;;;;;;;243.20;41.33;;;;;;;-145.18;100.00;60484.78;5056833;28;20410;-64
2023/02/14 04:41:57;;;;;;;233.10;38.13;;;;;;;-145.18;100.00;60484.78;5050759;28;20032;-65
2023/02/14 04:44:23;;;;;;;374.27;40.30;;;;;;;-145.18;100.00;60484.78;5042481;28;20468;-65
2023/02/14 04:46:49;;;;;;;394.73;45.40;;;;;;;-145.18;100.00;60484.78;5057025;28;20508;-64
2023/02/14 04:49:14;;;;;;;371.47;35.80;;;;;;;-145.18;100.00;60484.78;5051849;28;20020;-64
2023/02/14 04:51:40;;;;;;;416.37;38.87;;;;;;;-145.18;100.00;60484.78;5049955;28;20056;-65
2023/02/14 04:54:06;;;;;;;587.77;44.50;;;;;;;-145.18;100.00;60484.78;5051780;28;20050;-64
2023/02/14 04:56:31;;;;;;;395.77;35.13;;;;;;;-145.18;100.00;60484.78;5046825;28;20403;-64
2023/02/14 04:58:56;;;;;;;475.00;36.27;;;;;;;-145.18;100.00;60484.78;5051450;28;20028;-64
2023/02/14 05:01:22;;;;;;;295.40;27.50;;;;;;;-145.18;100.00;60484.78;5050464;28;20032;-64
2023/02/14 05:03:48;;;;;;;379.70;30.17;;;;;;;-145.18;100.00;60484.78;5046925;28;20033;-64
2023/02/14 05:06:14;;;;;;;380.60;31.50;;;;;;;-145.18;100.00;60484.78;5047769;28;20477;-64
2023/02/14 05:08:39;;;;;;;189.00;21.60;;;;;;;-145.18;100.00;60484.78;5051228;28;20035;-64
2023/02/14 05:11:04;;;;;;;391.60;30.03;;;;;;;-145.18;100.00;60484.78;5051439;28;20025;-64
2023/02/14 05:13:30;;;;;;;422.17;32.83;;;;;;;-145.18;100.00;60484.78;5051290;28;20033;-64
2023/02/14 05:15:57;;;;;;;501.03;36.40;;;;;;;-145.18;100.00;60484.78;5035968;28;20033;-64
2023/02/14 05:18:23;;;;;;;533.33;39.43;;;;;;;-145.18;100.00;60484.78;5050057;28;20070;-65
2023/02/14 05:20:50;;;;;;;340.83;29.60;;;;;;;-145.18;100.00;60484.78;5049045;28;20494;-65
2023/02/14 05:23:15;;;;;;;507.43;38.73;;;;;;;-145.18;100.00;60484.78;5070569;28;20035;-65
2023/02/14 05:25:42;;;;;;;536.00;38.70;;;;;;;-145.18;100.00;60484.78;5052378;28;20037;-65
2023/02/14 05:28:08;;;;;;;821.30;52.23;;;;;;;-145.18;100.00;60484.78;5051790;28;20448;-64
2023/02/14 05:30:33;;;;;;;542.40;38.10;;;;;;;-145.18;100.00;60484.78;5049110;28;20040;-65
2023/02/14 05:32:59;;;;;;;504.33;36.33;;;;;;;-145.18;100.00;60484.78;5048957;28;20025;-65
2023/02/14 05:35:25;;;;;;;406.73;33.70;;;;;;;-145.18;100.00;60484.78;5050712;28;20099;-65
2023/02/14 05:37:50;;;;;;;499.60;39.03;;;;;;;-145.18;100.00;60484.78;5048623;28;20409;-64
2023/02/14 05:40:16;;;;;;;519.47;41.20;;;;;;;-145.18;100.00;60484.78;5049760;28;20507;-65
2023/02/14 05:42:42;;;;;;;443.00;36.37;;;;;;;-145.18;100.00;60484.78;5062368;28;20090;-65
2023/02/14 05:45:08;;;;;;;393.27;32.97;;;;;;;-145.18;100.00;60484.78;5047816;28;20272;-65
2023/02/14 05:47:33;;;;;;;361.10;32.97;;;;;;;-145.18;100.00;60484.78;5047741;28;20132;-65
2023/02/14 05:49:59;;;;;;;378.93;34.77;;;;;;;-145.18;100.00;60484.78;5051417;28;20096;-65
2023/02/14 05:52:24;;;;;;;527.57;41.30;;;;;;;-145.18;100.00;60484.78;5050139;28;20048;-65
2023/02/14 05:54:50;;;;;;;464.47;38.10;;;;;;;-145.18;100.00;60484.78;5051382;28;20028;-65
2023/02/14 05:57:15;;;;;;;408.60;32.73;;;;;;;-145.18;100.00;60484.78;5051838;28;20036;-65
2023/02/14 05:59:41;;;;;;;545.53;38.47;;;;;;;-145.18;100.00;60484.78;5047601;28;20025;-65
2023/02/14 06:02:06;;;;;;;545.40;42.00;;;;;;;-145.18;100.00;60484.78;5049218;28;20419;-65
2023/02/14 06:04:31;;;;;;;429.60;34.27;;;;;;;-145.18;100.00;60484.78;5048302;28;20128;-65
2023/02/14 06:06:57;;;;;;;468.53;36.47;;;;;;;-145.18;100.00;60484.78;5048457;28;20028;-65
2023/02/14 06:09:22;;;;;;;499.90;39.70;;;;;;;-145.18;100.00;60484.78;5041771;28;20025;-65
2023/02/14 06:11:48;;;;;;;512.40;38.30;;;;;;;-145.18;100.00;60484.78;5044871;28;20388;-65
2023/02/14 06:14:13;;;;;;;366.03;33.93;;;;;;;-145.18;100.00;60484.78;5049231;28;20108;-64
2023/02/14 06:16:39;;;;;;;370.07;32.07;;;;;;;-145.18;100.00;60484.78;5048496;28;20028;-64
2023/02/14 06:19:04;;;;;;;414.30;33.20;;;;;;;-145.18;100.00;60484.78;5047201;28;20067;-65
2023/02/14 06:21:30;;;;;;;462.73;36.53;;;;;;;-145.18;100.00;60484.78;5049906;28;20075;-65
2023/02/14 06:23:55;;;;;;;440.77;33.37;;;;;;;-145.18;100.00;60484.78;5046441;28;20392;-65
2023/02/14 06:26:21;;;;;;;443.33;34.43;;;;;;;-145.18;100.00;60484.78;5047576;28;20491;-65
2023/02/14 06:28:52;;;;;;;398.83;32.50;;;;;;;-145.18;100.00;60484.78;5050161;28;20017;-65
2023/02/14 06:31:17;;;;;;;279.47;27.53;;;;;;;-145.18;100.00;60484.78;5045073;28;20400;-65
2023/02/14 06:33:42;;;;;;;328.47;30.30;;;;;;;-145.18;100.00;60484.78;5049369;28;20081;-65
2023/02/14 06:36:09;;;;;;;407.67;33.17;;;;;;;-145.18;100.00;60484.78;5046668;28;20024;-65
2023/02/14 06:38:34;;;;;;;263.17;25.33;;;;;;;-145.18;100.00;60484.78;5048496;28;20029;-65
2023/02/14 06:41:07;;;;;;;281.87;26.87;;;;;;;-145.18;100.00;60484.78;5050566;28;20111;-65
2023/02/14 06:43:33;;;;;;;345.43;31.53;;;;;;;-145.18;100.00;60484.78;5044219;28;20025;-65
2023/02/14 06:45:59;;;;;;;204.17;23.93;;;;;;;-145.18;100.00;60484.78;5040315;28;20025;-65
2023/02/14 06:48:24;;;;;;;66.23;14.53;;;;;;;-145.18;100.00;60484.78;5045155;28;20041;-65
2023/02/14 06:50:51;;;;;;;115.43;16.90;;;;;;;-145.18;100.00;60484.78;5049504;28;20048;-65
2023/02/14 06:53:17;;;;;;;86.27;15.40;;;;;;;-145.18;100.00;60484.78;5055402;28;20108;-65
2023/02/14 06:55:42;;;;;;;55.47;12.97;;;;;;;-145.18;100.00;60484.78;5069552;28;20021;-65
2023/02/14 06:58:07;;;;;;;56.17;12.53;;;;;;;-145.18;100.00;60484.78;5052268;28;20025;-65
2023/02/14 07:00:33;;;;;;;78.83;15.53;;;;;;;-145.18;100.00;60484.78;5050670;28;20380;-64
2023/02/14 07:02:58;;;;;;;79.63;16.07;;;;;;;-145.18;100.00;60484.78;5049640;28;20052;-64
2023/02/14 07:05:24;;;;;;;131.50;18.10;;;;;;;-145.18;100.00;60484.78;5050273;28;20033;-65
2023/02/14 07:07:49;;;;;;;84.50;17.13;;;;;;;-145.18;100.00;60484.78;5065503;28;20150;-65
2023/02/14 07:10:15;;;;;;;95.03;17.90;;;;;;;-145.18;100.00;60484.78;5069416;28;20086;-65
2023/02/14 07:12:40;;;;;;;103.53;18.87;;;;;;;-145.18;100.00;60484.78;5069081;28;20535;-65
2023/02/14 07:15:07;;;;;;;113.73;18.57;;;;;;;-145.18;100.00;60484.78;5067792;28;20020;-65
2023/02/14 07:17:32;;;;;;;85.00;16.67;;;;;;;-145.18;100.00;60484.78;5050384;28;20028;-64
2023/02/14 07:19:58;;;;;;;115.97;18.07;;;;;;;-145.18;100.00;60484.78;5049320;28;20040;-65
2023/02/14 07:22:23;;;;;;;108.33;19.50;;;;;;;-145.18;100.00;60484.78;5050451;28;20111;-66
2023/02/14 07:24:49;;;;;;;130.23;19.73;;;;;;;-145.18;100.00;60484.78;5046506;28;20095;-65
2023/02/14 07:27:14;;;;;;;70.23;14.97;;;;;;;-145.18;100.00;60484.78;5050787;28;20041;-65
2023/02/14 07:29:39;;;;;;;117.70;19.33;;;;;;;-145.18;100.00;60484.78;5050406;28;20029;-65
2023/02/14 07:32:05;;;;;;;121.20;20.23;;;;;;;-145.18;100.00;60484.78;5050396;28;20415;-64
2023/02/14 07:34:31;;;;;;;191.27;23.73;;;;;;;-145.18;100.00;60484.78;5051607;28;20036;-65
2023/02/14 07:36:57;;;;;;;104.73;19.10;;;;;;;-145.18;100.00;60484.78;5063634;28;20032;-65
2023/02/14 07:39:23;;;;;;;166.43;21.13;;;;;;;-145.18;100.00;60484.78;5050495;28;20021;-65
2023/02/14 07:41:48;;;;;;;120.50;19.73;;;;;;;-145.18;100.00;60484.78;5050522;28;20099;-65
2023/02/14 07:44:13;;;;;;;170.83;23.27;;;;;;;-145.18;100.00;60484.78;5053106;28;20013;-65
2023/02/14 07:46:39;;;;;;;138.90;21.43;;;;;;;-145.18;100.00;60484.78;5057933;28;20472;-65
2023/02/14 07:49:04;;;;;;;133.70;20.87;;;;;;;-145.18;100.00;60484.78;5072648;28;20028;-64
2023/02/14 07:51:30;;;;;;;162.23;24.63;;;;;;;-145.18;100.00;60484.78;5054374;28;20100;-65
2023/02/14 07:53:55;;;;;;;98.70;18.03;;;;;;;-145.18;100.00;60484.78;5053524;28;20372;-65
2023/02/14 07:56:21;;;;;;;117.13;19.63;;;;;;;-145.18;100.00;60484.78;5054139;28;20017;-64
2023/02/14 07:58:48;;;;;;;105.03;19.03;;;;;;;-145.18;100.00;60484.78;5053288;28;20021;-64
2023/02/14 08:01:14;;;;;;;120.77;21.63;;;;;;;-145.18;100.00;60484.78;5061743;28;20476;-65
2023/02/14 08:03:40;;;;;;;55.27;15.40;;;;;;;-145.18;100.00;60484.78;5067974;28;20484;-65
2023/02/14 08:06:05;;;;;;;197.57;26.40;;;;;;;-145.18;100.00;60484.78;5051886;28;20024;-65
2023/02/14 08:08:31;;;;;;;94.37;17.10;;;;;;;-145.18;100.00;60484.78;5056319;28;20063;-65
2023/02/14 08:10:57;;;;;;;157.33;21.93;;;;;;;-145.18;100.00;60484.78;5067032;28;20142;-65
2023/02/14 08:13:23;;;;;;;82.13;17.87;;;;;;;-145.18;100.00;60484.78;5049447;28;20036;-65
2023/02/14 08:16:04;;;;;;;114.50;21.20;;;;;;;-145.18;100.00;60484.78;5053727;28;20024;-64
2023/02/14 08:18:40;;;;;;;29.33;10.43;;;;;;;-145.18;100.00;60484.78;5053316;28;20486;-65
2023/02/14 08:21:10;;;;;;;46.23;12.43;;;;;;;-145.18;100.00;60484.78;5053266;28;20032;-64
2023/02/14 08:23:36;;;;;;;64.13;18.37;;;;;;;-145.18;100.00;60484.78;5053404;28;20447;-64
2023/02/14 08:26:02;;;;;;;92.47;17.70;;;;;;;-145.18;100.00;60484.78;5053203;28;20523;-65
2023/02/14 08:28:28;;;;;;;97.20;20.40;;;;;;;-145.18;100.00;60484.78;5052164;28;20411;-65
2023/02/14 08:30:54;;;;;;;48.43;16.30;;;;;;;-145.18;100.00;60484.78;5053116;28;20021;-65
2023/02/14 08:33:19;;;;;;;41.60;12.40;;;;;;;-145.18;100.00;60484.78;5058488;28;20097;-64
2023/02/14 08:35:49;;;;;;;49.23;15.03;;;;;;;-145.18;100.00;60484.78;5072070;28;20021;-65
2023/02/14 08:38:14;;;;;;;24.70;10.73;;;;;;;-145.18;100.00;60484.78;5049197;28;20035;-65
2023/02/14 08:40:40;;;;;;;43.37;14.40;;;;;;;-145.18;100.00;60484.78;5052814;28;20033;-65
2023/02/14 08:43:06;;;;;;;68.40;17.73;;;;;;;-145.18;100.00;60484.78;5053238;28;20059;-64
2023/02/14 08:45:32;;;;;;;112.77;20.47;;;;;;;-145.18;100.00;60484.78;5051545;28;20028;-65
2023/02/14 08:48:06;;;;;;;79.83;17.87;;;;;;;-145.18;100.00;60484.78;5052966;28;20024;-65
2023/02/14 08:50:32;;;;;;;69.97;18.10;;;;;;;-145.18;100.00;60484.78;5050551;28;20087;-65
2023/02/14 08:52:58;;;;;;;52.10;16.47;;;;;;;-145.18;100.00;60484.78;5052641;28;20506;-65
2023/02/14 08:55:23;;;;;;;61.63;17.53;;;;;;;-145.18;100.00;60484.78;5052686;28;20021;-64
2023/02/14 08:57:49;;;;;;;72.23;18.27;;;;;;;-145.18;100.00;60484.78;5052293;28;20029;-64
2023/02/14 09:00:15;;;;;;;51.50;16.50;;;;;;;-145.18;100.00;60484.78;5052574;28;20044;-65
2023/02/14 09:02:40;;;;;;;51.03;15.83;;;;;;;-145.18;100.00;60484.78;5051502;28;20037;-65
2023/02/14 09:05:08;;;;;;;39.83;13.93;;;;;;;-145.18;100.00;60484.78;5050431;28;20118;-65
2023/02/14 09:07:34;;;;;;;69.10;16.40;;;;;;;-145.18;100.00;60484.78;5066588;28;20031;-64
2023/02/14 09:09:59;;;;;;;40.93;13.17;;;;;;;-145.18;100.00;60484.78;5070955;28;20016;-65
2023/02/14 09:12:24;;;;;;;91.10;18.07;;;;;;;-145.18;100.00;60484.78;5071019;28;20107;-65
2023/02/14 09:14:50;;;;;;;108.40;19.50;;;;;;;-145.18;100.00;60484.78;5071247;28;20052;-65
2023/02/14 09:17:15;;;;;;;93.03;16.83;;;;;;;-145.18;100.00;60484.78;5071134;28;20424;-65
2023/02/14 09:19:41;;;;;;;54.10;15.63;;;;;;;-145.18;100.00;60484.78;5058776;28;20540;-65
2023/02/14 09:22:08;;;;;;;83.53;17.33;;;;;;;-145.18;100.00;60484.78;5052731;28;20044;-64
2023/02/14 09:24:36;;;;;;;62.67;16.17;;;;;;;-145.18;100.00;60484.78;5070419;28;20055;-64
2023/02/14 09:27:02;;;;;;;86.23;18.43;;;;;;;-145.18;100.00;60484.78;5070432;28;20042;-63
2023/02/14 09:29:28;;;;;;;68.73;16.00;;;;;;;-145.18;100.00;60484.78;5070867;28;20020;-64
2023/02/14 09:31:59;;;;;;;84.30;16.87;;;;;;;-145.18;100.00;60484.78;5070737;28;21361;-64
2023/02/14 09:34:26;;;;;;;72.30;16.37;;;;;;;-145.18;100.00;60484.78;5070466;28;20022;-64
2023/02/14 09:36:51;;;;;;;43.00;16.13;;;;;;;-145.18;100.00;60484.78;5056925;28;20028;-64
2023/02/14 09:39:17;;;;;;;53.83;13.70;;;;;;;-145.18;100.00;60484.78;5051685;28;20025;-63
2023/02/14 09:42:14;;;;;;;93.73;17.97;;;;;;;-145.18;100.00;60484.78;5051629;28;20107;-63
2023/02/14 09:44:46;;;;;;;90.17;15.00;;;;;;;-145.18;100.00;60484.78;5051813;28;20453;-63
2023/02/14 09:47:23;;;;;;;44.30;16.13;;;;;;;-145.18;100.00;60484.78;5051819;28;20055;-63
2023/02/14 09:49:50;;;;;;;32.47;16.87;;;;;;;-145.18;100.00;60484.78;5050677;28;20087;-63
2023/02/14 09:52:20;;;;;;;32.50;15.60;;;;;;;-145.18;100.00;60484.78;5051842;28;20472;-64
2023/02/14 09:54:52;;;;;;;40.13;13.23;;;;;;;-145.18;100.00;60484.78;5050810;28;20122;-64
2023/02/14 09:57:26;;;;;;;41.67;16.60;;;;;;;-145.18;100.00;60484.78;5051712;28;20021;-63
2023/02/14 09:59:58;;;;;;;43.23;17.20;;;;;;;-145.18;100.00;60484.78;5051343;28;20498;-63
2023/02/14 10:02:29;;;;;;;32.50;15.93;;;;;;;-145.18;100.00;60484.78;5068754;28;20028;-63
2023/02/14 10:05:10;;;;;;;32.63;14.30;;;;;;;-145.18;100.00;60484.78;5060749;28;20127;-63
2023/02/14 10:07:38;;;;;;;31.93;16.30;;;;;;;-145.18;100.00;60484.78;5069869;28;20500;-63
2023/02/14 10:10:06;;;;;;;37.03;17.17;;;;;;;-145.18;100.00;60484.78;5053677;28;20428;-63
2023/02/14 10:12:44;;;;;;;32.40;17.50;;;;;;;-145.18;100.00;60484.78;5051344;28;20415;-63
2023/02/14 10:15:23;;;;;;;30.30;16.77;;;;;;;-145.18;100.00;60484.78;5050649;28;20503;-64
2023/02/14 10:17:57;;;;;;;37.83;16.97;;;;;;;-145.18;100.00;60484.78;5050661;28;20128;-63
2023/02/14 10:20:28;;;;;;;110.07;20.93;;;;;;;-145.18;100.00;60484.78;5051386;28;20430;-63
2023/02/14 10:23:04;;;;;;;40.60;19.60;;;;;;;-145.18;100.00;60484.78;5050969;28;20074;-63
2023/02/14 10:25:41;;;;;;;64.23;20.30;;;;;;;-145.18;100.00;60484.78;5051086;28;20082;-64
2023/02/14 10:28:10;;;;;;;114.20;20.00;;;;;;;-145.18;100.00;60484.78;5050417;28;20028;-64
2023/02/14 10:30:43;;;;;;;74.43;21.10;;;;;;;-145.18;100.00;60484.78;5051110;28;20118;-63
2023/02/14 10:33:16;;;;;;;88.97;20.67;;;;;;;-145.18;100.00;60484.78;5051293;28;20021;-64
2023/02/14 10:35:56;;;;;;;34.53;17.20;;;;;;;-145.18;100.00;60484.78;5051035;28;20021;-63
2023/02/14 10:38:42;;;;;;;65.40;19.53;;;;;;;-145.18;100.00;60484.78;5046871;28;20026;-64
2023/02/14 10:41:49;;;;;;;78.63;21.43;;;;;;;-145.18;100.00;60484.78;5064570;28;20068;-64
2023/02/14 10:44:17;;;;;;;36.57;18.83;;;;;;;-145.18;100.00;60484.78;5062352;28;20029;-63
2023/02/14 10:47:03;;;;;;;38.87;19.53;;;;;;;-145.18;100.00;60484.78;5050965;28;20420;-63
2023/02/14 10:49:46;;;;;;;34.80;18.83;;;;;;;-145.18;100.00;60484.78;5051700;28;20046;-64
2023/02/14 10:52:24;;;;;;;47.63;20.00;;;;;;;-145.18;100.00;60484.78;5048428;28;20802;-63
2023/02/14 10:54:54;;;;;;;39.83;17.27;;;;;;;-145.18;100.00;60484.78;5051098;28;20064;-64
2023/02/14 10:57:41;;;;;;;37.37;19.67;;;;;;;-145.18;100.00;60484.78;5050684;28;20021;-63
2023/02/14 11:00:19;;;;;;;35.63;18.13;;;;;;;-145.18;100.00;60484.78;5049598;28;20413;-63
2023/02/14 11:02:49;;;;;;;36.27;18.10;;;;;;;-145.18;100.00;60484.78;5050017;28;20454;-63
2023/02/14 11:05:40;;;;;;;35.00;18.40;;;;;;;-145.18;100.00;60484.78;5053919;28;20036;-63
2023/02/14 11:08:22;;;;;;;31.50;17.80;;;;;;;-145.18;100.00;60484.78;5041148;28;20435;-64
2023/02/14 11:10:48;;;;;;;32.33;17.93;;;;;;;-145.18;100.00;60484.78;5050473;28;20102;-63
2023/02/14 11:13:35;;;;;;;32.73;17.23;;;;;;;-145.18;100.00;60484.78;5051039;28;20052;-63